Portada
METAR-TAF:

METAR-TAF

Aeroports :

Mae Sot, Tailàndia

latitud: 16-40N, longitud: 098-33E, altitud: 196 m

Observació

L'informe es va fer fa 5 hores i 48 minuts, a les 11:00 UTC
Vent 5 kt del Oest/Sud-Oest
Temperatura 31°C
Humitat 43%
Pressió 1012 hPa
Visibilitat: 9000 m

METAR: VTPM 171100Z 25005KT 9000 NSC 31/17 Q1012 NOSIG

Hora: 23:48 (16:48 UTC)

Pronòstic

L'informe es va fer fa 5 hores i 48 minuts, a les 11:00 UTC
Pronòstic vàlid del 17 a les 12 UTC al 18 a les 12 UTC
Vent 5 kt del Oest
Visibilitat: 9000 m
Evolucionant progressivament
l' 17 a les 21 UTC al 17 a les 23 UTC
Visibilitat: 4000 m
boirina
Evolucionant progressivament
l' 18 a les 01 UTC al 18 a les 03 UTC
Visibilitat: 7000 m

TAF: VTPM 171100Z 1712/1812 27005KT 9000 NSC BECMG 1721/1723 4000 BR BECMG 1801/1803 7000 NSW

Observacions i pronòstics meteorològics de més de 4000 aeroports (METAR i TAF).

Les estacions disponibles són els punts grocs i vermells al mapa.

Posi el ratolí al punt desitjat per veure el nom de l'estació.

Feu clic per veure les observacions i els pronòstics meteorològics.

Per canviar el mapa: feu clic els botons verds amb una creu de color negre per apropar; al botó verd amb un guió per allunyar la imatge; o en les fletxes verdes per a mapes adjacents.


METAR-TAF: